Terminal Aerodrome Forecast
Issued by NWS

Home | Current Version | Previous Version | Text Only | Print | Product List | Glossary On
Versions: 1 2 3 4 5 6 7 8 9 10 11 12 13
000
FTUS42 TJSJ 190500 RRA
TAFJMZ
TAF
TJMZ 190546Z 1906/2006 06003KT P6SM OVC090
     FM191530 08010KT P6SM VCSH SCT030
     FM192230 07005KT P6SM FEW030 SCT060
      AMD NOT SKED TIL 191100=

USA.gov is the U.S. government's official web portal to all federal, state and local government web resources and services.